Medburyville, Vermont
Current Conditions -  °F | °C
As of 2:54 PM on Wednesday 26 Nov 2014 (Local Time) from KDDH Reporting Station
Light Snow Light Snow  
Wind Chill: 26°   Ceiling: 1000
Heat Index: 32°   Visibility: 0.75mi
Dew Point: 30°   Wind: 6mph
Humidity: 92%   Direction: 10°N
Pressure: 30.03"   Gusts: NA
Location:  42.883°N, 72.8981°W
Report Text: KDDH 261954Z AUTO 01005KT 3/4SM -SN BR VV010 00/M01 A3003 RMK AO2 SLP175 P0008 T00001011
Loading
Personal Weather Stations






























Interactive Weather Map New forecast layout! Learn more

10-Day Weather Forecast

Advertisements
Track Severe Weather on mobile